createdAt,value
2022-11-16T00:01:54.462Z,98780.69
2022-11-16T00:04:21.313Z,98768.53
2022-11-16T00:06:49.630Z,98773.56
2022-11-16T00:09:22.881Z,98772.03
2022-11-16T00:11:51.743Z,98775.03
2022-11-16T00:14:19.823Z,98778.91
2022-11-16T00:16:46.936Z,98776.47
2022-11-16T00:19:14.133Z,98775.00
2022-11-16T00:21:41.263Z,98771.38
2022-11-16T00:24:10.594Z,98760.38
2022-11-16T00:26:37.406Z,98753.66
2022-11-16T00:29:04.533Z,98760.44
2022-11-16T00:31:31.537Z,98752.97
2022-11-16T00:33:58.528Z,98747.16
2022-11-16T00:36:25.358Z,98747.44
2022-11-16T00:38:54.148Z,98740.81
2022-11-16T00:41:21.183Z,98737.31
2022-11-16T00:43:50.162Z,98743.66
2022-11-16T00:46:17.376Z,98730.00
2022-11-16T00:48:44.282Z,98737.84
2022-11-16T00:51:12.168Z,98733.59
2022-11-16T00:53:39.357Z,98728.53
2022-11-16T00:56:06.733Z,98733.66
2022-11-16T00:59:11.736Z,98731.94
2022-11-16T01:02:41.988Z,98714.50
2022-11-16T01:05:09.953Z,98725.72
2022-11-16T01:07:38.441Z,98712.84
2022-11-16T01:10:08.919Z,98708.63
2022-11-16T01:12:35.709Z,98711.22
2022-11-16T01:15:03.102Z,98701.88
2022-11-16T01:17:30.006Z,98703.75
2022-11-16T01:19:56.772Z,98692.53
2022-11-16T01:22:23.597Z,98693.44
2022-11-16T01:24:53.194Z,98690.06
2022-11-16T01:27:20.097Z,98685.75
2022-11-16T01:29:47.075Z,98692.75
2022-11-16T01:32:16.909Z,98691.91
2022-11-16T01:34:43.705Z,98689.31
2022-11-16T01:37:10.585Z,98690.19
2022-11-16T01:39:37.698Z,98681.56
2022-11-16T01:42:04.894Z,98676.28
2022-11-16T01:44:31.597Z,98688.41
2022-11-16T01:46:59.644Z,98678.03
2022-11-16T01:49:32.344Z,98679.81
2022-11-16T01:52:05.064Z,98678.00
2022-11-16T01:54:34.595Z,98671.91
2022-11-16T01:57:05.535Z,98678.75
2022-11-16T01:59:35.969Z,98678.72
2022-11-16T02:02:03.576Z,98676.91
2022-11-16T02:04:32.216Z,98681.19
2022-11-16T02:07:27.868Z,98669.03
2022-11-16T02:10:00.808Z,98666.34
2022-11-16T02:13:11.840Z,98668.09
2022-11-16T02:15:48.045Z,98654.28
2022-11-16T02:18:48.554Z,98658.56
2022-11-16T02:21:28.197Z,98649.97
2022-11-16T02:24:32.265Z,98655.00
2022-11-16T02:26:58.984Z,98661.09
2022-11-16T02:29:31.546Z,98649.03
2022-11-16T02:32:17.684Z,98642.06
2022-11-16T02:34:57.046Z,98649.91
2022-11-16T02:37:26.538Z,98649.00
2022-11-16T02:39:57.798Z,98646.44
2022-11-16T02:42:33.033Z,98640.41
2022-11-16T02:45:02.397Z,98636.97
2022-11-16T02:47:33.429Z,98632.69
2022-11-16T02:50:05.703Z,98629.16
2022-11-16T02:52:32.562Z,98631.53
2022-11-16T02:54:59.360Z,98626.25
2022-11-16T02:57:40.749Z,98625.25
2022-11-16T03:00:15.926Z,98618.25
2022-11-16T03:03:00.803Z,98616.25
2022-11-16T03:05:33.819Z,98621.28
2022-11-16T03:08:18.704Z,98613.34
2022-11-16T03:11:10.564Z,98612.25
2022-11-16T03:13:39.300Z,98609.59
2022-11-16T03:16:34.946Z,98608.00
2022-11-16T03:19:05.826Z,98595.66
2022-11-16T03:22:07.601Z,98592.47
2022-11-16T03:24:34.592Z,98587.00
2022-11-16T03:27:26.017Z,98589.19
2022-11-16T03:30:00.282Z,98591.84
2022-11-16T03:32:46.288Z,98574.19
2022-11-16T03:35:21.320Z,98586.22
2022-11-16T03:37:50.974Z,98579.06
2022-11-16T03:40:19.451Z,98581.00
2022-11-16T03:42:49.820Z,98589.59
2022-11-16T03:45:18.918Z,98580.97
2022-11-16T03:47:46.567Z,98592.09
2022-11-16T03:50:14.061Z,98593.00
2022-11-16T03:52:41.471Z,98587.91
2022-11-16T03:55:08.723Z,98579.31
2022-11-16T03:57:35.855Z,98576.63
2022-11-16T04:00:02.885Z,98578.47
2022-11-16T04:02:29.742Z,98579.44
2022-11-16T04:05:15.345Z,98580.22
2022-11-16T04:08:01.205Z,98563.94
2022-11-16T04:10:46.831Z,98560.44
2022-11-16T04:13:34.171Z,98568.75
2022-11-16T04:16:19.765Z,98560.03
2022-11-16T04:19:05.402Z,98567.59
2022-11-16T04:21:58.512Z,98559.81
2022-11-16T04:24:29.761Z,98561.66
2022-11-16T04:27:19.390Z,98559.78
2022-11-16T04:29:46.850Z,98563.28
2022-11-16T04:32:32.178Z,98558.66
2022-11-16T04:35:17.562Z,98558.06
2022-11-16T04:37:50.620Z,98535.53
2022-11-16T04:40:24.919Z,98546.75
2022-11-16T04:42:57.496Z,98537.44
2022-11-16T04:45:51.588Z,98534.13
2022-11-16T04:48:19.986Z,98547.06
2022-11-16T04:50:47.808Z,98541.97
2022-11-16T04:53:15.554Z,98542.09
2022-11-16T04:55:42.755Z,98538.66
2022-11-16T04:58:09.598Z,98541.97
2022-11-16T05:00:36.520Z,98539.56
2022-11-16T05:03:05.035Z,98532.78
2022-11-16T05:05:31.845Z,98531.25
2022-11-16T05:07:58.733Z,98527.19
2022-11-16T05:10:25.854Z,98531.34
2022-11-16T05:12:52.605Z,98527.28
2022-11-16T05:15:19.989Z,98530.81
2022-11-16T05:17:47.627Z,98527.53
2022-11-16T05:20:33.045Z,98534.47
2022-11-16T05:23:00.206Z,98529.50
2022-11-16T05:25:31.269Z,98533.00
2022-11-16T05:28:00.786Z,98520.91
2022-11-16T05:30:29.796Z,98522.78
2022-11-16T05:32:56.734Z,98520.25
2022-11-16T05:35:23.495Z,98518.63
2022-11-16T05:37:50.320Z,98520.28
2022-11-16T05:40:17.206Z,98513.53
2022-11-16T05:42:44.038Z,98510.97
2022-11-16T05:45:11.146Z,98504.03
2022-11-16T05:47:37.939Z,98499.81
2022-11-16T05:50:05.157Z,98506.50
2022-11-16T05:52:32.033Z,98505.09
2022-11-16T05:54:58.825Z,98495.06
2022-11-16T05:57:25.587Z,98505.31
2022-11-16T06:00:00.156Z,98507.78
2022-11-16T06:02:27.264Z,98516.34
2022-11-16T06:04:54.085Z,98504.19
2022-11-16T06:07:21.039Z,98507.78
2022-11-16T06:09:47.838Z,98509.59
2022-11-16T06:12:14.667Z,98499.31
2022-11-16T06:14:41.495Z,98502.06
2022-11-16T06:17:08.827Z,98495.25
2022-11-16T06:19:35.596Z,98495.25
2022-11-16T06:22:02.434Z,98490.09
2022-11-16T06:24:29.266Z,98493.50
2022-11-16T06:26:56.053Z,98486.59
2022-11-16T06:29:23.074Z,98479.72
2022-11-16T06:31:49.973Z,98477.09
2022-11-16T06:34:17.195Z,98477.13
2022-11-16T06:36:43.999Z,98480.56
2022-11-16T06:39:13.037Z,98484.00
2022-11-16T06:41:41.680Z,98473.66
2022-11-16T06:44:08.757Z,98489.22
2022-11-16T06:46:35.549Z,98483.19
2022-11-16T06:49:02.340Z,98481.41
2022-11-16T06:51:29.214Z,98478.84
2022-11-16T06:53:55.978Z,98480.56
2022-11-16T06:56:22.885Z,98484.03
2022-11-16T06:58:53.196Z,98473.66
2022-11-16T07:01:20.572Z,98472.78
2022-11-16T07:03:47.509Z,98470.16
2022-11-16T07:06:14.969Z,98475.38
2022-11-16T07:08:41.834Z,98472.78
2022-11-16T07:11:10.031Z,98471.88
2022-11-16T07:13:38.193Z,98471.88
2022-11-16T07:16:09.537Z,98472.75
2022-11-16T07:18:38.207Z,98476.16
2022-11-16T07:21:16.745Z,98474.44
2022-11-16T07:23:44.826Z,98467.44
2022-11-16T07:26:11.978Z,98461.25
2022-11-16T07:28:42.171Z,98466.16
2022-11-16T07:31:15.464Z,98464.31
2022-11-16T07:33:42.402Z,98454.75
2022-11-16T07:36:15.574Z,98459.66
2022-11-16T07:38:42.504Z,98460.38
2022-11-16T07:41:18.128Z,98454.44
2022-11-16T07:43:51.552Z,98459.72
2022-11-16T07:46:51.477Z,98460.63
2022-11-16T07:49:14.010Z,98452.84
2022-11-16T07:51:40.952Z,98445.06
2022-11-16T07:54:08.394Z,98450.22
2022-11-16T07:56:35.312Z,98442.41
2022-11-16T07:59:02.563Z,98438.94
2022-11-16T08:01:29.568Z,98444.91
2022-11-16T08:03:56.544Z,98436.16
2022-11-16T08:06:26.107Z,98434.19
2022-11-16T08:08:57.970Z,98428.06
2022-11-16T08:11:26.077Z,98426.25
2022-11-16T08:13:53.060Z,98429.66
2022-11-16T08:16:22.334Z,98422.72
2022-11-16T08:18:49.699Z,98425.31
2022-11-16T08:21:18.564Z,98426.19
2022-11-16T08:23:46.008Z,98422.72
2022-11-16T08:26:18.646Z,98428.75
2022-11-16T08:28:47.488Z,98418.47
2022-11-16T08:31:17.069Z,98430.53
2022-11-16T08:33:43.899Z,98437.53
2022-11-16T08:36:17.253Z,98415.88
2022-11-16T08:38:46.373Z,98421.13
2022-11-16T08:41:14.283Z,98415.91
2022-11-16T08:43:41.637Z,98416.06
2022-11-16T08:46:09.997Z,98419.50
2022-11-16T08:48:37.674Z,98411.78
2022-11-16T08:51:21.556Z,98414.34
2022-11-16T08:53:49.612Z,98409.19
2022-11-16T08:56:18.696Z,98413.50
2022-11-16T08:58:52.614Z,98414.28
2022-11-16T09:01:25.702Z,98410.81
2022-11-16T09:03:53.837Z,98389.22
2022-11-16T09:06:21.573Z,98391.19
2022-11-16T09:08:48.801Z,98386.56
2022-11-16T09:11:18.599Z,98395.19
2022-11-16T09:13:47.120Z,98397.59
2022-11-16T09:16:16.863Z,98393.09
2022-11-16T09:18:46.793Z,98382.75
2022-11-16T09:21:19.253Z,98384.53
2022-11-16T09:23:47.254Z,98385.38
2022-11-16T09:26:14.716Z,98390.72
2022-11-16T09:28:41.819Z,98384.75
2022-11-16T09:31:10.368Z,98385.47
2022-11-16T09:33:38.068Z,98377.69
2022-11-16T09:36:08.070Z,98379.44
2022-11-16T09:39:13.959Z,98376.13
2022-11-16T09:41:26.589Z,98366.53
2022-11-16T09:44:10.005Z,98356.97
2022-11-16T09:46:56.054Z,98357.75
2022-11-16T09:49:31.370Z,98351.63
2022-11-16T09:52:03.072Z,98333.63
2022-11-16T09:54:36.237Z,98338.00
2022-11-16T09:57:12.367Z,98329.25
2022-11-16T09:59:45.530Z,98328.31
2022-11-16T10:02:42.269Z,98321.47
2022-11-16T10:05:20.575Z,98313.72
2022-11-16T10:07:51.720Z,98314.31
2022-11-16T10:10:42.897Z,98310.75
2022-11-16T10:13:09.834Z,98314.91
2022-11-16T10:16:03.314Z,98315.66
2022-11-16T10:18:54.265Z,98302.84
2022-11-16T10:21:42.332Z,98297.63
2022-11-16T10:24:56.709Z,98296.66
2022-11-16T10:27:44.726Z,98289.78
2022-11-16T10:30:21.376Z,98287.09
2022-11-16T10:33:08.160Z,98288.75
2022-11-16T10:35:42.589Z,98282.06
2022-11-16T10:38:20.509Z,98269.72
2022-11-16T10:40:52.036Z,98271.47
2022-11-16T10:43:23.401Z,98263.00
2022-11-16T10:46:08.617Z,98268.91
2022-11-16T10:49:07.460Z,98261.06
2022-11-16T10:51:34.431Z,98260.13
2022-11-16T10:54:01.406Z,98256.50
2022-11-16T10:56:42.777Z,98251.22
2022-11-16T10:59:18.041Z,98242.75
2022-11-16T11:01:53.468Z,98242.63
2022-11-16T11:04:24.533Z,98239.31
2022-11-16T11:06:55.962Z,98234.19
2022-11-16T11:09:29.554Z,98226.28
2022-11-16T11:12:38.327Z,98229.84
2022-11-16T11:15:27.132Z,98208.88
2022-11-16T11:18:12.219Z,98216.13
2022-11-16T11:20:44.732Z,98208.91
2022-11-16T11:23:17.090Z,98215.31
2022-11-16T11:25:59.402Z,98194.06
2022-11-16T11:28:32.809Z,98196.41
2022-11-16T11:31:04.614Z,98195.25
2022-11-16T11:34:00.731Z,98188.06
2022-11-16T11:36:40.652Z,98180.16
2022-11-16T11:39:13.753Z,98187.97
2022-11-16T11:41:43.296Z,98168.63
2022-11-16T11:44:13.120Z,98177.94
2022-11-16T11:47:35.047Z,98170.25
2022-11-16T11:49:40.334Z,98168.47
2022-11-16T11:52:21.078Z,98154.50
2022-11-16T11:54:52.361Z,98148.06
2022-11-16T11:57:24.008Z,98148.41
2022-11-16T11:59:53.373Z,98144.34
2022-11-16T12:02:40.179Z,98143.59
2022-11-16T12:05:48.695Z,98141.63
2022-11-16T12:08:50.987Z,98134.03
2022-11-16T12:11:47.645Z,98134.13
2022-11-16T12:14:35.601Z,98123.78
2022-11-16T12:17:23.832Z,98125.59
2022-11-16T12:20:20.006Z,98122.91
2022-11-16T12:23:03.761Z,98117.53
2022-11-16T12:26:00.868Z,98106.13
2022-11-16T12:28:53.333Z,98106.88
2022-11-16T12:31:34.959Z,98112.09
2022-11-16T12:34:16.031Z,98104.78
2022-11-16T12:37:21.272Z,98096.88
2022-11-16T12:40:09.652Z,98100.19
2022-11-16T12:42:55.238Z,98094.72
2022-11-16T12:45:36.100Z,98097.50
2022-11-16T12:48:34.390Z,98109.63
2022-11-16T12:51:19.960Z,98099.31
2022-11-16T12:53:52.850Z,98095.88
2022-11-16T12:57:01.548Z,98084.97
2022-11-16T12:59:35.911Z,98081.47
2022-11-16T13:02:05.522Z,98081.38
2022-11-16T13:04:37.227Z,98077.41
2022-11-16T13:07:27.875Z,98067.19
2022-11-16T13:10:14.580Z,98068.75
2022-11-16T13:12:43.320Z,98078.13
2022-11-16T13:15:19.565Z,98076.09
2022-11-16T13:18:00.034Z,98073.44
2022-11-16T13:20:46.715Z,98081.13
2022-11-16T13:23:22.524Z,98080.16
2022-11-16T13:25:57.428Z,98072.41
2022-11-16T13:28:37.653Z,98067.97
2022-11-16T13:31:31.879Z,98060.44
2022-11-16T13:34:15.796Z,98064.97
2022-11-16T13:36:45.303Z,98069.47
2022-11-16T13:39:22.590Z,98062.63
2022-11-16T13:42:07.441Z,98060.91
2022-11-16T13:44:35.213Z,98063.47
2022-11-16T13:47:05.984Z,98052.28
2022-11-16T13:49:48.339Z,98055.03
2022-11-16T13:52:23.684Z,98052.19
2022-11-16T13:54:56.071Z,98056.59
2022-11-16T13:57:31.055Z,98060.19
2022-11-16T14:00:00.688Z,98064.59
2022-11-16T14:02:37.893Z,98054.06
2022-11-16T14:05:16.437Z,98060.19
2022-11-16T14:07:50.116Z,98061.88
2022-11-16T14:10:37.185Z,98062.69
2022-11-16T14:13:05.334Z,98060.06
2022-11-16T14:15:37.861Z,98057.50
2022-11-16T14:18:07.741Z,98066.22
2022-11-16T14:20:40.123Z,98056.81
2022-11-16T14:23:15.746Z,98053.31
2022-11-16T14:26:07.941Z,98057.81
2022-11-16T14:29:00.591Z,98051.78
2022-11-16T14:31:32.166Z,98047.56
2022-11-16T14:34:01.011Z,98060.69
2022-11-16T14:36:40.730Z,98047.88
2022-11-16T14:39:30.481Z,98055.88
2022-11-16T14:42:54.269Z,98057.00
2022-11-16T14:45:28.669Z,98044.19
2022-11-16T14:48:06.049Z,98047.03
2022-11-16T14:50:39.616Z,98041.00
2022-11-16T14:53:10.039Z,98037.47
2022-11-16T14:55:43.436Z,98046.28
2022-11-16T14:58:18.147Z,98039.56
2022-11-16T15:00:57.244Z,98050.81
2022-11-16T15:03:28.078Z,98038.00
2022-11-16T15:06:00.999Z,98044.97
2022-11-16T15:08:42.473Z,98032.16
2022-11-16T15:11:20.605Z,98044.34
2022-11-16T15:13:47.796Z,98038.34
2022-11-16T15:16:20.740Z,98038.34
2022-11-16T15:19:01.931Z,98042.78
2022-11-16T15:21:29.482Z,98027.31
2022-11-16T15:26:43.820Z,98021.28
2022-11-16T15:29:22.329Z,98009.84
2022-11-16T15:31:49.962Z,98020.34
2022-11-16T15:34:20.560Z,98018.66
2022-11-16T15:36:49.373Z,98015.13
2022-11-16T15:39:23.402Z,98025.66
2022-11-16T15:41:52.144Z,98024.97
2022-11-16T15:44:21.663Z,98014.63
2022-11-16T15:46:52.178Z,98019.13
2022-11-16T15:49:37.936Z,98015.75
2022-11-16T15:52:05.977Z,98009.81
2022-11-16T15:54:55.287Z,98012.44
2022-11-16T15:57:24.174Z,98009.84
2022-11-16T15:59:57.512Z,98007.34
2022-11-16T16:02:29.358Z,98010.78
2022-11-16T16:04:56.782Z,98008.25
2022-11-16T16:07:41.763Z,98016.09
2022-11-16T16:10:25.846Z,98008.34
2022-11-16T16:12:54.796Z,98006.59
2022-11-16T16:15:25.454Z,97995.44
2022-11-16T16:17:54.695Z,98005.75
2022-11-16T16:20:24.645Z,98006.69
2022-11-16T16:22:52.657Z,98011.06
2022-11-16T16:25:50.294Z,98011.06
2022-11-16T16:28:18.476Z,98009.41
2022-11-16T16:30:45.739Z,97998.28
2022-11-16T16:33:19.762Z,98007.75
2022-11-16T16:35:49.987Z,98000.78
2022-11-16T16:38:17.191Z,97998.19
2022-11-16T16:40:44.175Z,97989.50
2022-11-16T16:43:11.258Z,97975.81
2022-11-16T16:45:42.270Z,97975.66
2022-11-16T16:48:10.769Z,97977.47
2022-11-16T16:50:39.278Z,97971.44
2022-11-16T16:53:06.507Z,97975.78
2022-11-16T16:55:37.484Z,97973.19
2022-11-16T16:58:05.615Z,97985.34
2022-11-16T17:00:36.950Z,97976.59
2022-11-16T17:03:04.027Z,97974.78
2022-11-16T17:05:34.254Z,97967.97
2022-11-16T17:08:01.887Z,97962.81
2022-11-16T17:10:29.276Z,97961.13
2022-11-16T17:12:57.057Z,97957.63
2022-11-16T17:15:25.106Z,97962.81
2022-11-16T17:17:54.930Z,97956.75
2022-11-16T17:20:21.924Z,97955.81
2022-11-16T17:22:50.178Z,97947.16
2022-11-16T17:25:17.641Z,97948.16
2022-11-16T17:27:44.795Z,97948.28
2022-11-16T17:30:12.694Z,97936.00
2022-11-16T17:32:44.450Z,97935.16
2022-11-16T17:35:12.198Z,97935.94
2022-11-16T17:37:39.446Z,97927.31
2022-11-16T17:40:07.199Z,97933.41
2022-11-16T17:42:35.981Z,97937.66
2022-11-16T17:45:13.314Z,97930.81
2022-11-16T17:47:51.537Z,97932.59
2022-11-16T17:50:22.128Z,97921.31
2022-11-16T17:52:49.424Z,97918.69
2022-11-16T17:55:24.807Z,97916.16
2022-11-16T17:57:54.351Z,97916.09
2022-11-16T18:00:21.498Z,97913.44
2022-11-16T18:02:48.337Z,97905.59
2022-11-16T18:05:16.608Z,97902.09
2022-11-16T18:07:43.806Z,97888.28
2022-11-16T18:10:13.778Z,97881.31
2022-11-16T18:12:44.999Z,97883.97
2022-11-16T18:15:27.922Z,97887.50
2022-11-16T18:17:59.347Z,97871.13
2022-11-16T18:20:28.118Z,97879.56
2022-11-16T18:22:58.593Z,97879.59
2022-11-16T18:25:25.540Z,97881.28
2022-11-16T18:27:54.653Z,97883.88
2022-11-16T18:30:23.233Z,97886.56
2022-11-16T18:32:50.433Z,97876.16
2022-11-16T18:35:18.104Z,97880.53
2022-11-16T18:37:45.063Z,97879.81
2022-11-16T18:40:15.614Z,97880.00
2022-11-16T18:42:42.883Z,97881.69
2022-11-16T18:45:10.174Z,97876.50
2022-11-16T18:47:37.046Z,97870.25
2022-11-16T18:50:20.137Z,97868.50
2022-11-16T18:52:49.861Z,97863.13
2022-11-16T18:55:18.221Z,97854.47
2022-11-16T18:57:45.236Z,97866.53
2022-11-16T19:00:13.210Z,97866.59
2022-11-16T19:02:40.288Z,97865.66
2022-11-16T19:05:08.036Z,97863.09
2022-11-16T19:07:35.232Z,97848.31
2022-11-16T19:10:02.355Z,97832.91
2022-11-16T19:12:29.459Z,97839.69
2022-11-16T19:14:56.485Z,97837.09
2022-11-16T19:17:25.622Z,97830.94
2022-11-16T19:19:52.800Z,97838.69
2022-11-16T19:22:20.815Z,97832.66
2022-11-16T19:24:47.941Z,97830.13
2022-11-16T19:27:16.862Z,97835.31
2022-11-16T19:29:43.787Z,97829.13
2022-11-16T19:32:10.773Z,97828.16
2022-11-16T19:34:37.767Z,97829.09
2022-11-16T19:37:04.672Z,97829.94
2022-11-16T19:39:31.545Z,97826.44
2022-11-16T19:41:58.368Z,97827.34
2022-11-16T19:44:25.223Z,97821.22
2022-11-16T19:46:53.322Z,97806.69
2022-11-16T19:49:21.952Z,97817.88
2022-11-16T19:51:49.799Z,97812.63
2022-11-16T19:54:19.685Z,97808.31
2022-11-16T19:56:50.518Z,97812.47
2022-11-16T19:59:20.537Z,97813.22
2022-11-16T20:01:47.515Z,97815.78
2022-11-16T20:04:15.562Z,97813.16
2022-11-16T20:06:42.508Z,97807.97
2022-11-16T20:09:12.140Z,97793.25
2022-11-16T20:11:41.522Z,97790.72
2022-11-16T20:14:10.677Z,97794.16
2022-11-16T20:16:40.423Z,97799.34
2022-11-16T20:19:09.343Z,97787.19
2022-11-16T20:21:41.600Z,97788.94
2022-11-16T20:24:11.777Z,97783.75
2022-11-16T20:26:46.493Z,97772.53
2022-11-16T20:29:15.339Z,97772.44
2022-11-16T20:31:43.102Z,97773.41
2022-11-16T20:34:16.582Z,97764.66
2022-11-16T20:36:46.390Z,97765.47
2022-11-16T20:39:16.410Z,97771.56
2022-11-16T20:41:44.256Z,97768.19
2022-11-16T20:44:18.675Z,97771.56
2022-11-16T20:46:45.644Z,97770.72
2022-11-16T20:49:12.896Z,97769.84
2022-11-16T20:51:40.293Z,97764.75
2022-11-16T20:54:07.545Z,97775.94
2022-11-16T20:56:36.822Z,97766.44
2022-11-16T20:59:04.133Z,97774.31
2022-11-16T21:01:34.102Z,97780.44
2022-11-16T21:04:04.190Z,97775.25
2022-11-16T21:06:32.139Z,97782.25
2022-11-16T21:08:59.782Z,97782.25
2022-11-16T21:11:29.276Z,97784.81
2022-11-16T21:16:44.160Z,97780.59
2022-11-16T21:19:12.093Z,97761.59
2022-11-16T21:21:41.047Z,97773.78
2022-11-16T21:24:13.573Z,97770.31
2022-11-16T21:26:40.758Z,97775.47
2022-11-16T21:29:07.942Z,97775.53
2022-11-16T21:31:36.691Z,97766.09
2022-11-16T21:34:04.205Z,97768.69
2022-11-16T21:36:32.393Z,97759.13
2022-11-16T21:38:59.786Z,97767.75
2022-11-16T21:41:27.422Z,97765.09
2022-11-16T21:43:54.664Z,97756.38
2022-11-16T21:46:26.880Z,97758.28
2022-11-16T21:48:56.792Z,97767.75
2022-11-16T21:51:26.564Z,97779.78
2022-11-16T21:53:54.994Z,97772.88
2022-11-16T21:56:24.866Z,97768.69
2022-11-16T21:58:54.380Z,97772.06
2022-11-16T22:01:23.217Z,97774.72
2022-11-16T22:04:10.547Z,97764.38
2022-11-16T22:06:56.729Z,97777.38
2022-11-16T22:09:24.772Z,97771.38
2022-11-16T22:11:51.822Z,97776.53
2022-11-16T22:14:19.045Z,97783.53
2022-11-16T22:16:46.984Z,97767.91
2022-11-16T22:19:14.258Z,97768.00
2022-11-16T22:21:41.324Z,97766.16
2022-11-16T22:24:08.469Z,97769.63
2022-11-16T23:01:14.222Z,97715.00
2022-11-16T23:06:16.947Z,97716.84
2022-11-16T23:08:44.050Z,97716.00
2022-11-16T23:11:34.544Z,97711.75
2022-11-16T23:14:20.506Z,97709.94
2022-11-16T23:16:47.517Z,97706.66
2022-11-16T23:19:34.845Z,97711.78
2022-11-16T23:22:20.575Z,97699.59
2022-11-16T23:25:05.897Z,97695.38
2022-11-16T23:28:01.040Z,97692.84
2022-11-16T23:30:27.896Z,97686.81
2022-11-16T23:32:55.202Z,97691.94
2022-11-16T23:35:22.654Z,97683.47
2022-11-16T23:37:57.564Z,97682.53
2022-11-16T23:40:36.004Z,97666.19
2022-11-16T23:43:22.445Z,97667.03
2022-11-16T23:45:49.715Z,97662.66
2022-11-16T23:48:18.584Z,97668.63
2022-11-16T23:50:46.346Z,97650.56
2022-11-16T23:53:14.032Z,97656.63
2022-11-16T23:55:41.168Z,97663.63
2022-11-16T23:58:13.430Z,97661.09
